createdAt,value
2023-03-22T00:02:00.589Z,100793.31
2023-03-22T00:04:27.102Z,100803.34
2023-03-22T00:06:53.706Z,100804.16
2023-03-22T00:09:20.434Z,100810.47
2023-03-22T00:11:50.869Z,100819.66
2023-03-22T00:14:18.842Z,100828.03
2023-03-22T00:16:46.416Z,100830.13
2023-03-22T00:19:13.191Z,100837.25
2023-03-22T00:21:39.784Z,100842.44
2023-03-22T00:24:06.733Z,100838.97
2023-03-22T00:26:33.416Z,100842.47
2023-03-22T00:29:00.795Z,100827.53
2023-03-22T00:31:27.477Z,100817.56
2023-03-22T00:33:54.175Z,100806.44
2023-03-22T00:36:21.158Z,100787.06
2023-03-22T00:38:48.084Z,100773.56
2023-03-22T00:41:20.362Z,100745.88
2023-03-22T00:43:48.329Z,100722.66
2023-03-22T00:46:16.835Z,100708.63
2023-03-22T00:48:44.286Z,100692.78
2023-03-22T00:51:11.468Z,100687.97
2023-03-22T00:53:42.397Z,100657.22
2023-03-22T00:56:13.844Z,100646.75
2023-03-22T00:58:40.953Z,100625.38
2023-03-22T01:01:08.350Z,100609.03
2023-03-22T01:03:35.161Z,100598.59
2023-03-22T01:06:01.972Z,100593.38
2023-03-22T01:08:33.336Z,100581.50
2023-03-22T01:11:01.251Z,100578.41
2023-03-22T01:13:28.974Z,100560.41
2023-03-22T01:15:56.032Z,100543.09
2023-03-22T01:18:23.024Z,100522.38
2023-03-22T01:20:49.620Z,100530.44
2023-03-22T01:23:16.185Z,100527.09
2023-03-22T01:25:42.926Z,100538.38
2023-03-22T01:28:09.815Z,100547.19
2023-03-22T01:30:37.002Z,100563.75
2023-03-22T01:33:03.894Z,100561.56
2023-03-22T01:35:30.878Z,100569.13
2023-03-22T01:37:57.479Z,100585.66
2023-03-22T01:40:26.269Z,100587.91
2023-03-22T01:42:54.341Z,100595.88
2023-03-22T01:45:41.563Z,100608.94
2023-03-22T01:48:08.119Z,100623.00
2023-03-22T01:50:37.524Z,100640.31
2023-03-22T01:53:06.729Z,100634.81
2023-03-22T01:55:34.045Z,100636.44
2023-03-22T01:58:01.688Z,100649.25
2023-03-22T02:00:28.264Z,100646.19
2023-03-22T02:02:54.906Z,100645.97
2023-03-22T02:05:24.647Z,100643.75
2023-03-22T02:07:53.068Z,100637.28
2023-03-22T02:10:23.375Z,100642.59
2023-03-22T02:13:17.808Z,100648.47
2023-03-22T02:16:13.235Z,100640.72
2023-03-22T02:18:59.249Z,100636.22
2023-03-22T02:22:00.559Z,100632.75
2023-03-22T02:24:34.948Z,100638.00
2023-03-22T02:27:20.909Z,100636.69
2023-03-22T02:29:59.817Z,100626.88
2023-03-22T02:32:50.776Z,100622.38
2023-03-22T02:35:35.893Z,100611.75
2023-03-22T02:38:31.964Z,100599.06
2023-03-22T02:41:24.473Z,100584.31
2023-03-22T02:44:08.870Z,100575.75
2023-03-22T02:46:52.671Z,100572.28
2023-03-22T02:49:26.988Z,100564.53
2023-03-22T02:52:18.835Z,100555.19
2023-03-22T02:55:07.617Z,100554.78
2023-03-22T02:57:44.253Z,100549.72
2023-03-22T03:00:14.039Z,100554.97
2023-03-22T03:02:49.572Z,100562.72
2023-03-22T03:05:18.115Z,100553.91
2023-03-22T03:07:49.192Z,100553.72
2023-03-22T03:10:18.076Z,100565.75
2023-03-22T03:12:44.630Z,100555.56
2023-03-22T03:15:19.606Z,100568.34
2023-03-22T03:18:00.432Z,100565.31
2023-03-22T03:21:00.407Z,100577.09
2023-03-22T03:23:42.186Z,100589.88
2023-03-22T03:26:11.449Z,100589.88
2023-03-22T03:28:58.010Z,100589.47
2023-03-22T03:31:49.103Z,100595.13
2023-03-22T03:34:26.655Z,100596.09
2023-03-22T03:37:17.444Z,100590.59
2023-03-22T03:39:48.843Z,100588.00
2023-03-22T03:42:18.340Z,100593.06
2023-03-22T03:44:45.505Z,100586.75
2023-03-22T03:47:13.245Z,100599.38
2023-03-22T03:49:39.977Z,100604.03
2023-03-22T03:52:06.861Z,100611.56
2023-03-22T03:54:33.652Z,100607.31
2023-03-22T03:57:03.470Z,100613.78
2023-03-22T03:59:30.587Z,100620.91
2023-03-22T04:01:57.203Z,100623.31
2023-03-22T04:04:27.156Z,100619.00
2023-03-22T04:06:58.639Z,100613.09
2023-03-22T04:09:27.712Z,100619.66
2023-03-22T04:11:55.403Z,100618.28
2023-03-22T04:14:22.982Z,100621.91
2023-03-22T04:16:49.523Z,100629.44
2023-03-22T04:19:16.299Z,100632.28
2023-03-22T04:21:43.195Z,100638.78
2023-03-22T04:24:10.065Z,100641.06
2023-03-22T04:26:36.736Z,100639.25
2023-03-22T04:29:04.278Z,100657.75
2023-03-22T04:31:32.876Z,100657.31
2023-03-22T04:34:05.494Z,100662.97
2023-03-22T04:36:39.406Z,100652.41
2023-03-22T04:39:09.601Z,100665.44
2023-03-22T04:41:37.207Z,100669.97
2023-03-22T04:44:05.716Z,100664.84
2023-03-22T04:46:34.580Z,100670.59
2023-03-22T04:49:01.523Z,100680.78
2023-03-22T04:51:28.542Z,100685.25
2023-03-22T04:53:55.167Z,100690.72
2023-03-22T04:56:22.215Z,100685.69
2023-03-22T04:58:48.816Z,100698.28
2023-03-22T05:01:17.433Z,100692.41
2023-03-22T05:03:45.819Z,100690.09
2023-03-22T05:06:12.483Z,100693.75
2023-03-22T05:08:39.161Z,100693.94
2023-03-22T05:11:12.643Z,100683.56
2023-03-22T05:13:39.706Z,100687.03
2023-03-22T05:16:07.474Z,100695.78
2023-03-22T05:18:34.063Z,100687.56
2023-03-22T05:21:06.702Z,100681.50
2023-03-22T05:23:33.335Z,100676.00
2023-03-22T05:26:01.665Z,100678.47
2023-03-22T05:28:28.721Z,100674.81
2023-03-22T05:30:57.096Z,100663.84
2023-03-22T05:33:23.923Z,100665.94
2023-03-22T05:35:51.307Z,100671.84
2023-03-22T05:38:18.221Z,100675.31
2023-03-22T05:40:45.278Z,100682.59
2023-03-22T05:43:12.714Z,100687.66
2023-03-22T05:45:39.625Z,100676.88
2023-03-22T05:48:07.035Z,100670.41
2023-03-22T05:50:34.300Z,100682.81
2023-03-22T05:53:02.163Z,100678.34
2023-03-22T05:55:31.924Z,100684.88
2023-03-22T05:57:59.597Z,100672.66
2023-03-22T06:00:26.212Z,100679.59
2023-03-22T06:02:56.384Z,100696.72
2023-03-22T06:05:23.783Z,100695.91
2023-03-22T06:07:50.341Z,100696.72
2023-03-22T06:10:18.303Z,100689.63
2023-03-22T06:12:45.388Z,100701.63
2023-03-22T06:15:12.614Z,100696.97
2023-03-22T06:17:39.339Z,100695.16
2023-03-22T06:20:10.834Z,100696.78
2023-03-22T06:22:38.238Z,100709.03
2023-03-22T06:25:07.326Z,100697.63
2023-03-22T06:27:34.440Z,100694.97
2023-03-22T06:30:01.179Z,100699.44
2023-03-22T06:32:28.066Z,100705.56
2023-03-22T06:34:55.660Z,100696.84
2023-03-22T06:37:23.265Z,100719.22
2023-03-22T06:39:51.361Z,100719.63
2023-03-22T06:42:18.080Z,100722.88
2023-03-22T06:44:44.935Z,100717.38
2023-03-22T06:47:11.944Z,100716.97
2023-03-22T06:49:40.273Z,100735.91
2023-03-22T06:52:06.878Z,100729.25
2023-03-22T06:54:34.248Z,100734.97
2023-03-22T06:57:00.862Z,100736.88
2023-03-22T06:59:27.969Z,100750.75
2023-03-22T07:01:54.563Z,100754.03
2023-03-22T07:04:21.335Z,100755.91
2023-03-22T07:06:48.285Z,100773.00
2023-03-22T07:09:14.899Z,100774.06
2023-03-22T07:11:41.485Z,100777.72
2023-03-22T07:14:08.203Z,100796.06
2023-03-22T07:16:34.823Z,100806.03
2023-03-22T07:19:01.473Z,100808.06
2023-03-22T07:21:28.509Z,100803.63
2023-03-22T07:23:55.566Z,100814.22
2023-03-22T07:26:22.148Z,100809.13
2023-03-22T07:28:48.736Z,100824.19
2023-03-22T07:31:16.922Z,100831.75
2023-03-22T07:33:43.532Z,100823.94
2023-03-22T07:36:11.080Z,100817.06
2023-03-22T07:38:37.993Z,100824.34
2023-03-22T07:41:04.730Z,100820.72
2023-03-22T07:43:31.307Z,100829.06
2023-03-22T07:45:58.064Z,100823.00
2023-03-22T07:48:24.856Z,100839.50
2023-03-22T07:50:56.385Z,100832.41
2023-03-22T07:53:22.951Z,100834.03
2023-03-22T07:55:49.596Z,100819.50
2023-03-22T07:58:16.212Z,100819.50
2023-03-22T08:00:42.804Z,100824.56
2023-03-22T08:03:12.415Z,100805.84
2023-03-22T08:05:43.336Z,100798.91
2023-03-22T08:08:10.852Z,100781.00
2023-03-22T08:10:38.410Z,100753.78
2023-03-22T08:13:05.239Z,100751.31
2023-03-22T08:15:31.856Z,100731.22
2023-03-22T08:17:58.439Z,100709.44
2023-03-22T08:20:27.369Z,100703.91
2023-03-22T08:22:54.930Z,100701.22
2023-03-22T08:25:21.924Z,100678.59
2023-03-22T08:27:48.412Z,100655.75
2023-03-22T08:30:15.267Z,100626.84
2023-03-22T08:32:41.844Z,100608.06
2023-03-22T08:35:09.089Z,100570.31
2023-03-22T08:37:35.721Z,100456.44
2023-03-22T08:40:02.364Z,100430.16
2023-03-22T08:42:28.990Z,100383.72
2023-03-22T08:44:55.542Z,100350.97
2023-03-22T08:47:22.190Z,100331.81
2023-03-22T08:49:48.725Z,100303.72
2023-03-22T08:52:15.414Z,100271.63
2023-03-22T08:54:42.201Z,100266.75
2023-03-22T08:57:17.605Z,100249.22
2023-03-22T08:59:44.226Z,100217.06
2023-03-22T09:02:10.878Z,100202.84
2023-03-22T09:04:37.596Z,100198.41
2023-03-22T09:07:04.319Z,100189.84
2023-03-22T09:09:30.965Z,100182.69
2023-03-22T09:11:58.228Z,100165.63
2023-03-22T09:14:24.808Z,100162.34
2023-03-22T09:16:51.864Z,100147.31
2023-03-22T09:19:18.429Z,100115.56
2023-03-22T09:21:45.574Z,100074.06
2023-03-22T09:24:12.267Z,100061.81
2023-03-22T09:26:38.920Z,100023.78
2023-03-22T09:29:05.663Z,100003.00
2023-03-22T09:31:32.234Z,99995.88
2023-03-22T09:33:58.871Z,100000.53
2023-03-22T09:36:25.450Z,99976.16
2023-03-22T09:38:52.154Z,99980.22
2023-03-22T09:41:24.165Z,99963.31
2023-03-22T09:44:03.575Z,99954.41
2023-03-22T09:46:40.713Z,99929.13
2023-03-22T09:49:14.290Z,99915.53
2023-03-22T09:51:44.851Z,99903.28
2023-03-22T09:54:15.352Z,99880.31
2023-03-22T09:56:44.338Z,99856.28
2023-03-22T09:59:23.709Z,99859.75
2023-03-22T10:02:04.760Z,99827.78
2023-03-22T10:04:49.722Z,99779.28
2023-03-22T10:07:28.334Z,99774.00
2023-03-22T10:09:57.884Z,99764.44
2023-03-22T10:12:31.470Z,99747.09
2023-03-22T10:15:15.121Z,99741.81
2023-03-22T10:17:52.091Z,99715.69
2023-03-22T10:20:45.328Z,99671.94
2023-03-22T10:23:16.814Z,99657.03
2023-03-22T10:25:43.882Z,99645.34
2023-03-22T10:28:29.136Z,99637.13
2023-03-22T10:30:57.619Z,99634.69
2023-03-22T10:33:33.689Z,99622.81
2023-03-22T10:36:02.134Z,99635.69
2023-03-22T10:38:31.216Z,99634.81
2023-03-22T10:40:59.802Z,99643.50
2023-03-22T10:43:35.138Z,99637.97
2023-03-22T10:46:05.458Z,99644.16
2023-03-22T10:48:39.465Z,99635.09
2023-03-22T10:51:07.121Z,99632.06
2023-03-22T10:53:46.620Z,99641.31
2023-03-22T10:56:18.747Z,99643.16
2023-03-22T10:58:46.268Z,99654.34
2023-03-22T11:01:26.112Z,99682.34
2023-03-22T11:03:56.749Z,99712.44
2023-03-22T11:06:38.182Z,99745.94
2023-03-22T11:09:13.738Z,99838.94
2023-03-22T11:11:55.627Z,99926.47
2023-03-22T11:14:35.692Z,100063.56
2023-03-22T11:17:12.675Z,100145.38
2023-03-22T11:19:52.737Z,100208.31
2023-03-22T11:22:19.264Z,100232.38
2023-03-22T11:24:47.578Z,100251.56
2023-03-22T11:27:25.216Z,100274.00
2023-03-22T11:29:54.410Z,100291.53
2023-03-22T11:32:32.970Z,100307.22
2023-03-22T11:35:05.652Z,100323.00
2023-03-22T11:37:32.275Z,100347.47
2023-03-22T11:40:05.049Z,100351.72
2023-03-22T11:42:34.424Z,100377.63
2023-03-22T11:45:01.087Z,100401.53
2023-03-22T11:47:34.394Z,100401.75
2023-03-22T11:50:04.933Z,100408.06
2023-03-22T11:52:31.597Z,100411.94
2023-03-22T11:54:59.642Z,100410.34
2023-03-22T11:57:29.700Z,100407.88
2023-03-22T12:00:07.193Z,100429.31
2023-03-22T12:02:46.433Z,100424.59
2023-03-22T12:05:23.212Z,100434.38
2023-03-22T12:07:55.864Z,100431.09
2023-03-22T12:10:31.158Z,100452.53
2023-03-22T12:13:06.145Z,100467.66
2023-03-22T12:15:38.475Z,100470.31
2023-03-22T12:18:27.809Z,100466.84
2023-03-22T12:20:59.233Z,100481.53
2023-03-22T12:23:32.024Z,100476.84
2023-03-22T12:26:15.748Z,100466.63
2023-03-22T12:28:53.362Z,100477.03
2023-03-22T12:31:26.518Z,100474.16
2023-03-22T12:33:59.605Z,100471.50
2023-03-22T12:36:42.880Z,100474.16
2023-03-22T12:39:19.605Z,100463.34
2023-03-22T12:41:50.800Z,100462.69
2023-03-22T12:44:24.627Z,100453.72
2023-03-22T12:47:01.132Z,100462.91
2023-03-22T12:49:43.141Z,100457.19
2023-03-22T12:52:26.436Z,100440.66
2023-03-22T12:54:59.375Z,100438.38
2023-03-22T12:57:26.592Z,100454.94
2023-03-22T12:59:57.852Z,100453.34
2023-03-22T13:02:32.154Z,100449.84
2023-03-22T13:05:09.540Z,100433.72
2023-03-22T13:07:52.098Z,100428.63
2023-03-22T13:10:30.934Z,100418.19
2023-03-22T13:13:29.792Z,100419.59
2023-03-22T13:16:15.603Z,100404.84
2023-03-22T13:18:42.434Z,100424.69
2023-03-22T13:21:22.904Z,100413.25
2023-03-22T13:23:55.095Z,100415.91
2023-03-22T13:26:28.090Z,100420.13
2023-03-22T13:28:59.953Z,100430.13
2023-03-22T13:31:37.532Z,100429.03
2023-03-22T13:34:04.907Z,100436.41
2023-03-22T13:36:32.271Z,100430.88
2023-03-22T13:39:03.195Z,100445.59
2023-03-22T13:41:32.776Z,100446.16
2023-03-22T13:44:01.551Z,100443.66
2023-03-22T13:46:36.976Z,100462.50
2023-03-22T13:49:04.195Z,100469.22
2023-03-22T13:51:33.886Z,100464.53
2023-03-22T13:54:18.694Z,100469.97
2023-03-22T13:56:57.339Z,100515.50
2023-03-22T13:59:33.970Z,100517.38
2023-03-22T14:02:15.846Z,100499.47
2023-03-22T14:04:56.580Z,100487.03
2023-03-22T14:07:28.861Z,100444.38
2023-03-22T14:10:03.382Z,100418.03
2023-03-22T14:12:48.229Z,100398.25
2023-03-22T14:15:19.174Z,100356.75
2023-03-22T14:17:59.598Z,100338.41
2023-03-22T14:20:31.018Z,100306.97
